createdAt,value
2019-05-15T00:00:40.587Z,92.40
2019-05-15T00:03:08.824Z,92.30
2019-05-15T00:05:39.029Z,92.30
2019-05-15T00:08:09.214Z,92.30
2019-05-15T00:10:38.935Z,92.30
2019-05-15T00:13:08.978Z,92.40
2019-05-15T00:15:40.194Z,92.30
2019-05-15T00:18:08.826Z,92.30
2019-05-15T00:20:39.389Z,92.30
2019-05-15T00:23:08.518Z,92.30
2019-05-15T00:25:39.070Z,92.20
2019-05-15T00:28:09.102Z,92.30
2019-05-15T00:30:38.754Z,92.40
2019-05-15T00:33:08.942Z,92.40
2019-05-15T00:35:38.983Z,92.30
2019-05-15T00:38:13.331Z,92.40
2019-05-15T00:40:41.133Z,92.30
2019-05-15T00:43:09.181Z,92.30
2019-05-15T00:45:38.509Z,92.40
2019-05-15T00:48:08.916Z,92.40
2019-05-15T00:50:38.764Z,92.30
2019-05-15T00:53:08.640Z,92.30
2019-05-15T00:55:39.874Z,92.30
2019-05-15T00:58:08.898Z,92.30
2019-05-15T01:00:44.841Z,92.30
2019-05-15T01:03:13.401Z,92.30
2019-05-15T01:05:48.119Z,92.30
2019-05-15T01:08:15.776Z,92.40
2019-05-15T01:10:48.679Z,92.40
2019-05-15T01:13:16.026Z,92.40
2019-05-15T01:15:43.995Z,92.30
2019-05-15T01:18:14.934Z,92.30
2019-05-15T01:20:42.926Z,92.20
2019-05-15T01:23:12.600Z,92.30
2019-05-15T01:25:41.518Z,92.20
2019-05-15T01:28:18.151Z,92.20
2019-05-15T01:30:45.549Z,92.10
2019-05-15T01:33:36.252Z,92.20
2019-05-15T01:36:08.498Z,92.20
2019-05-15T01:38:38.861Z,92.10
2019-05-15T01:41:09.761Z,92.10
2019-05-15T01:43:38.214Z,92.20
2019-05-15T01:46:10.366Z,92.10
2019-05-15T01:48:49.329Z,92.10
2019-05-15T01:51:22.382Z,92.20
2019-05-15T01:53:50.665Z,92.20
2019-05-15T01:56:21.680Z,92.20
2019-05-15T01:58:49.770Z,92.10
2019-05-15T02:01:19.232Z,92.20
2019-05-15T02:03:49.542Z,92.10
2019-05-15T02:06:19.230Z,92.20
2019-05-15T02:11:31.276Z,92.20
2019-05-15T02:14:01.740Z,92.30
2019-05-15T02:16:33.303Z,92.30
2019-05-15T02:19:03.474Z,92.20
2019-05-15T02:21:37.872Z,92.20
2019-05-15T02:24:04.041Z,92.10
2019-05-15T02:26:35.567Z,92.30
2019-05-15T02:29:14.576Z,92.20
2019-05-15T02:31:43.315Z,92.30
2019-05-15T02:34:14.850Z,92.40
2019-05-15T02:36:43.105Z,92.40
2019-05-15T02:39:11.199Z,92.50
2019-05-15T02:41:39.816Z,92.50
2019-05-15T02:44:10.922Z,92.50
2019-05-15T02:46:39.160Z,92.50
2019-05-15T02:49:08.749Z,92.50
2019-05-15T02:51:39.895Z,92.50
2019-05-15T02:54:10.285Z,92.50
2019-05-15T02:56:39.230Z,92.50
2019-05-15T02:59:09.265Z,92.50
2019-05-15T03:01:39.991Z,92.50
2019-05-15T03:04:09.049Z,92.40
2019-05-15T03:06:38.814Z,92.40
2019-05-15T03:09:09.573Z,92.40
2019-05-15T03:11:40.948Z,92.40
2019-05-15T03:14:09.251Z,92.40
2019-05-15T03:16:39.504Z,92.40
2019-05-15T03:19:09.970Z,92.40
2019-05-15T03:21:38.874Z,92.30
2019-05-15T03:24:09.850Z,92.40
2019-05-15T03:26:39.305Z,92.20
2019-05-15T03:29:09.505Z,92.30
2019-05-15T03:31:56.722Z,92.50
2019-05-15T03:34:19.941Z,92.40
2019-05-15T03:36:37.000Z,92.40
2019-05-15T03:39:09.509Z,92.40
2019-05-15T03:41:39.184Z,92.40
2019-05-15T03:44:09.167Z,92.40
2019-05-15T03:46:42.598Z,92.30
2019-05-15T03:49:13.728Z,92.30
2019-05-15T03:51:45.629Z,92.20
2019-05-15T03:54:11.692Z,92.20
2019-05-15T03:56:42.714Z,92.30
2019-05-15T03:59:10.451Z,92.30
2019-05-15T04:01:43.743Z,92.40
2019-05-15T04:04:12.107Z,92.50
2019-05-15T04:06:40.407Z,92.50
2019-05-15T04:09:09.717Z,92.50
2019-05-15T04:11:39.847Z,92.60
2019-05-15T04:14:11.977Z,92.50
2019-05-15T04:16:43.698Z,92.60
2019-05-15T04:19:13.584Z,92.50
2019-05-15T04:21:49.143Z,92.60
2019-05-15T04:24:19.040Z,92.50
2019-05-15T04:26:48.667Z,92.50
2019-05-15T04:29:19.458Z,92.40
2019-05-15T04:31:59.937Z,92.30
2019-05-15T04:34:19.825Z,92.50
2019-05-15T04:36:49.726Z,92.40
2019-05-15T04:39:19.360Z,92.40
2019-05-15T04:41:49.953Z,92.50
2019-05-15T04:44:19.736Z,92.50
2019-05-15T04:46:49.786Z,92.40
2019-05-15T04:49:19.304Z,92.30
2019-05-15T04:51:53.289Z,92.40
2019-05-15T04:54:21.944Z,92.30
2019-05-15T04:56:50.066Z,92.40
2019-05-15T04:59:20.925Z,92.40
2019-05-15T05:02:12.981Z,92.40
2019-05-15T05:04:29.456Z,92.30
2019-05-15T05:06:58.665Z,92.20
2019-05-15T05:09:28.859Z,92.10
2019-05-15T05:11:58.243Z,92.30
2019-05-15T05:14:28.817Z,92.30
2019-05-15T05:16:59.273Z,92.40
2019-05-15T05:19:28.510Z,92.00
2019-05-15T05:21:58.454Z,92.10
2019-05-15T05:24:28.036Z,92.20
2019-05-15T05:26:58.067Z,92.20
2019-05-15T05:29:27.864Z,92.40
2019-05-15T05:31:58.455Z,92.00
2019-05-15T05:34:28.322Z,92.00
2019-05-15T05:36:58.724Z,92.20
2019-05-15T05:39:29.282Z,92.30
2019-05-15T05:41:58.755Z,92.20
2019-05-15T05:44:29.519Z,92.40
2019-05-15T05:47:00.809Z,92.30
2019-05-15T05:49:51.906Z,92.50
2019-05-15T05:52:24.042Z,92.40
2019-05-15T05:54:58.098Z,91.90
2019-05-15T05:57:28.064Z,92.00
2019-05-15T06:00:00.943Z,92.50
2019-05-15T06:02:47.406Z,92.70
2019-05-15T06:05:12.718Z,92.50
2019-05-15T06:07:50.079Z,92.30
2019-05-15T06:10:21.134Z,92.60
2019-05-15T06:13:08.680Z,92.50
2019-05-15T06:15:38.206Z,92.30
2019-05-15T06:18:10.142Z,92.40
2019-05-15T06:20:49.445Z,92.60
2019-05-15T06:23:23.160Z,92.90
2019-05-15T06:26:25.525Z,92.30
2019-05-15T06:28:58.286Z,92.60
2019-05-15T06:31:45.328Z,92.50
2019-05-15T06:34:45.806Z,92.60
2019-05-15T06:37:20.037Z,93.00
2019-05-15T06:39:48.697Z,92.10
2019-05-15T06:42:20.102Z,91.70
2019-05-15T06:44:50.542Z,92.50
2019-05-15T06:47:18.877Z,92.80
2019-05-15T06:49:50.534Z,92.90
2019-05-15T06:52:24.704Z,92.70
2019-05-15T06:55:09.345Z,92.80
2019-05-15T06:57:40.014Z,89.10
2019-05-15T07:00:16.069Z,90.00
2019-05-15T07:03:21.452Z,91.10
2019-05-15T07:05:43.802Z,91.70
2019-05-15T07:08:15.044Z,92.00
2019-05-15T07:10:51.986Z,91.20
2019-05-15T07:13:20.369Z,91.80
2019-05-15T07:15:50.659Z,91.20
2019-05-15T07:18:33.627Z,91.80
2019-05-15T07:21:30.949Z,91.10
2019-05-15T07:24:21.552Z,89.30
2019-05-15T07:27:04.351Z,89.00
2019-05-15T07:29:38.391Z,90.60
2019-05-15T07:32:08.035Z,86.50
2019-05-15T07:34:45.442Z,89.80
2019-05-15T07:37:19.013Z,90.20
2019-05-15T07:39:48.839Z,89.70
2019-05-15T07:42:34.702Z,88.20
2019-05-15T07:45:03.148Z,88.30
2019-05-15T07:47:38.780Z,88.70
2019-05-15T07:50:16.449Z,88.50
2019-05-15T07:53:02.803Z,87.60
2019-05-15T07:55:31.267Z,89.00
2019-05-15T07:58:00.042Z,89.20
2019-05-15T08:00:31.586Z,90.70
2019-05-15T08:03:00.674Z,90.90
2019-05-15T08:05:39.501Z,90.50
2019-05-15T08:08:08.697Z,90.10
2019-05-15T08:10:39.375Z,89.90
2019-05-15T08:13:09.041Z,89.30
2019-05-15T08:15:38.236Z,90.30
2019-05-15T08:18:12.688Z,90.50
2019-05-15T08:20:43.261Z,90.90
2019-05-15T08:23:29.367Z,89.00
2019-05-15T08:25:57.980Z,89.00
2019-05-15T08:28:38.439Z,90.50
2019-05-15T08:31:10.710Z,88.70
2019-05-15T08:33:42.746Z,84.50
2019-05-15T08:36:11.257Z,83.90
2019-05-15T08:38:39.125Z,84.80
2019-05-15T08:41:11.438Z,84.50
2019-05-15T08:43:38.238Z,86.30
2019-05-15T08:46:08.291Z,87.40
2019-05-15T08:48:41.310Z,87.20
2019-05-15T08:51:10.007Z,87.80
2019-05-15T08:53:38.308Z,88.40
2019-05-15T08:56:08.462Z,89.30
2019-05-15T08:58:38.234Z,89.50
2019-05-15T09:01:09.447Z,88.90
2019-05-15T09:03:38.052Z,89.00
2019-05-15T09:06:09.063Z,90.10
2019-05-15T09:08:39.489Z,88.90
2019-05-15T09:11:10.263Z,89.70
2019-05-15T09:13:43.752Z,88.70
2019-05-15T09:16:11.785Z,89.80
2019-05-15T09:18:39.881Z,87.50
2019-05-15T09:21:08.838Z,89.30
2019-05-15T09:23:38.732Z,87.80
2019-05-15T09:26:09.802Z,88.90
2019-05-15T09:28:39.153Z,89.70
2019-05-15T09:31:08.448Z,87.40
2019-05-15T09:33:44.612Z,86.20
2019-05-15T09:36:15.261Z,83.20
2019-05-15T09:38:49.097Z,84.90
2019-05-15T09:41:17.934Z,83.50
2019-05-15T09:43:48.356Z,84.70
2019-05-15T09:46:18.275Z,84.90
2019-05-15T09:48:50.479Z,83.70
2019-05-15T09:51:18.330Z,84.90
2019-05-15T09:53:48.433Z,85.70
2019-05-15T09:56:18.633Z,84.00
2019-05-15T09:58:48.615Z,82.80
2019-05-15T10:01:19.301Z,84.20
2019-05-15T10:03:48.454Z,81.60
2019-05-15T10:06:20.116Z,80.60
2019-05-15T10:08:48.992Z,79.10
2019-05-15T10:11:19.320Z,77.50
2019-05-15T10:13:46.489Z,78.30
2019-05-15T10:16:14.988Z,81.30
2019-05-15T10:18:43.346Z,79.70
2019-05-15T10:21:11.208Z,80.90
2019-05-15T10:23:42.338Z,80.90
2019-05-15T10:26:14.238Z,83.30
2019-05-15T10:28:41.864Z,80.60
2019-05-15T10:31:10.221Z,80.70
2019-05-15T10:33:39.266Z,80.90
2019-05-15T10:36:08.480Z,81.80
2019-05-15T10:38:38.959Z,82.30
2019-05-15T10:41:19.062Z,82.20
2019-05-15T10:43:55.998Z,79.80
2019-05-15T10:46:19.097Z,79.00
2019-05-15T10:48:49.315Z,79.00
2019-05-15T10:51:28.635Z,78.80
2019-05-15T10:53:59.419Z,79.10
2019-05-15T10:56:39.264Z,78.70
2019-05-15T10:59:14.668Z,78.90
2019-05-15T11:01:42.511Z,81.20
2019-05-15T11:04:19.884Z,83.20
2019-05-15T11:06:49.071Z,84.40
2019-05-15T11:09:24.593Z,87.20
2019-05-15T11:11:54.961Z,88.60
2019-05-15T11:14:24.154Z,90.40
2019-05-15T11:16:59.796Z,91.00
2019-05-15T11:19:43.149Z,91.10
2019-05-15T11:22:18.910Z,91.60
2019-05-15T11:24:52.468Z,90.40
2019-05-15T11:27:19.116Z,91.20
2019-05-15T11:30:03.685Z,90.90
2019-05-15T11:32:44.537Z,91.70
2019-05-15T11:35:18.920Z,91.90
2019-05-15T11:37:55.747Z,91.70
2019-05-15T11:40:38.893Z,91.00
2019-05-15T11:43:19.688Z,90.70
2019-05-15T11:45:50.750Z,91.40
2019-05-15T11:48:32.372Z,90.40
2019-05-15T11:51:09.213Z,91.70
2019-05-15T11:53:58.839Z,91.50
2019-05-15T11:56:39.461Z,92.40
2019-05-15T11:59:13.281Z,92.00
2019-05-15T12:01:50.653Z,90.40
2019-05-15T12:04:34.167Z,90.30
2019-05-15T12:07:11.483Z,90.90
2019-05-15T12:10:10.752Z,90.80
2019-05-15T12:12:39.723Z,90.50
2019-05-15T12:15:21.503Z,88.70
2019-05-15T12:17:50.864Z,89.10
2019-05-15T12:20:22.911Z,88.20
2019-05-15T12:22:59.401Z,90.70
2019-05-15T12:25:31.474Z,91.20
2019-05-15T12:27:59.912Z,92.60
2019-05-15T12:30:43.175Z,92.50
2019-05-15T12:33:11.636Z,92.20
2019-05-15T12:35:44.309Z,92.20
2019-05-15T12:38:24.650Z,92.60
2019-05-15T13:01:21.950Z,92.80
2019-05-15T13:03:57.834Z,93.20
2019-05-15T13:06:31.015Z,93.00
2019-05-15T13:09:00.806Z,93.50
2019-05-15T13:14:28.212Z,93.90
2019-05-15T13:17:42.108Z,93.00
2019-05-15T13:20:18.579Z,93.70
2019-05-15T13:25:15.663Z,92.50
2019-05-15T13:27:43.662Z,93.10
2019-05-15T13:30:11.756Z,92.90
2019-05-15T13:32:42.980Z,93.90
2019-05-15T13:35:11.730Z,93.50
2019-05-15T13:37:41.361Z,93.20
2019-05-15T13:40:18.455Z,93.50
2019-05-15T13:42:48.281Z,93.00
2019-05-15T13:45:39.024Z,93.10
2019-05-15T13:48:09.600Z,92.90
2019-05-15T13:50:40.283Z,93.20
2019-05-15T13:53:11.203Z,93.30
2019-05-15T13:55:42.494Z,93.90
2019-05-15T13:58:09.128Z,93.90
2019-05-15T14:00:39.119Z,93.70
2019-05-15T14:03:09.045Z,93.70
2019-05-15T14:05:38.304Z,93.70
2019-05-15T14:08:06.626Z,93.90
2019-05-15T14:10:38.721Z,94.00
2019-05-15T14:13:06.592Z,93.90
2019-05-15T14:15:45.163Z,93.70
2019-05-15T14:18:14.194Z,93.70
2019-05-15T14:20:42.027Z,93.80
2019-05-15T14:23:11.958Z,93.90
2019-05-15T14:25:42.207Z,94.10
2019-05-15T14:28:10.102Z,94.00
2019-05-15T14:30:37.846Z,94.20
2019-05-15T14:33:08.232Z,94.00
2019-05-15T14:35:48.428Z,93.90
2019-05-15T14:38:18.559Z,93.90
2019-05-15T14:40:48.204Z,93.90
2019-05-15T14:43:19.555Z,93.80
2019-05-15T14:45:49.632Z,93.50
2019-05-15T14:48:19.073Z,93.80
2019-05-15T14:50:47.689Z,94.00
2019-05-15T14:53:15.388Z,93.70
2019-05-15T14:55:44.381Z,93.90
2019-05-15T14:58:12.076Z,94.00
2019-05-15T15:00:41.930Z,94.00
2019-05-15T15:05:58.037Z,93.90
2019-05-15T15:08:25.664Z,93.70
2019-05-15T15:10:53.495Z,93.70
2019-05-15T15:13:21.260Z,93.60
2019-05-15T15:15:52.966Z,93.50
2019-05-15T15:18:20.879Z,93.40
2019-05-15T15:20:51.574Z,93.40
2019-05-15T15:23:19.350Z,93.20
2019-05-15T15:25:48.398Z,93.10
2019-05-15T15:28:18.917Z,93.10
2019-05-15T15:30:48.450Z,92.90
2019-05-15T15:33:15.832Z,93.00
2019-05-15T15:35:43.712Z,93.10
2019-05-15T15:38:13.408Z,93.20
2019-05-15T15:40:42.235Z,93.20
2019-05-15T15:43:10.034Z,93.10
2019-05-15T15:45:45.060Z,93.10
2019-05-15T15:48:13.086Z,93.10
2019-05-15T15:50:40.955Z,93.10
2019-05-15T15:53:09.229Z,93.10
2019-05-15T15:55:38.530Z,93.00
2019-05-15T15:58:08.845Z,93.00
2019-05-15T16:00:38.424Z,93.00
2019-05-15T16:03:08.365Z,93.00
2019-05-15T16:05:38.354Z,93.00
2019-05-15T16:08:08.524Z,92.90
2019-05-15T16:10:51.835Z,92.90
2019-05-15T16:13:20.225Z,92.90
2019-05-15T16:15:57.803Z,92.80
2019-05-15T16:18:25.939Z,92.80
2019-05-15T16:20:53.817Z,92.80
2019-05-15T16:23:22.841Z,92.80
2019-05-15T16:25:50.715Z,92.90
2019-05-15T16:28:18.717Z,92.90
2019-05-15T16:30:51.359Z,92.80
2019-05-15T16:33:18.433Z,92.80
2019-05-15T16:35:48.644Z,92.80
2019-05-15T16:38:19.249Z,92.80
2019-05-15T16:40:48.884Z,92.70
2019-05-15T16:43:17.799Z,92.60
2019-05-15T16:45:49.461Z,92.40
2019-05-15T16:48:15.699Z,92.50
2019-05-15T16:50:44.564Z,92.40
2019-05-15T16:53:34.074Z,92.40
2019-05-15T16:56:02.244Z,92.30
2019-05-15T16:58:30.309Z,92.30
2019-05-15T17:01:04.240Z,92.20
2019-05-15T17:03:33.641Z,92.20
2019-05-15T17:06:01.430Z,92.00
2019-05-15T17:08:32.069Z,92.00
2019-05-15T17:10:59.054Z,92.10
2019-05-15T17:13:28.715Z,92.00
2019-05-15T17:15:58.412Z,92.20
2019-05-15T17:18:26.901Z,92.10
2019-05-15T17:20:55.259Z,92.20
2019-05-15T17:23:23.371Z,92.20
2019-05-15T17:25:52.006Z,92.40
2019-05-15T17:28:20.015Z,92.30
2019-05-15T17:30:48.765Z,92.30
2019-05-15T17:33:18.465Z,92.40
2019-05-15T17:35:48.738Z,92.40
2019-05-15T17:38:18.249Z,92.50
2019-05-15T17:40:48.456Z,92.40
2019-05-15T17:43:18.229Z,92.50
2019-05-15T17:45:48.157Z,92.50
2019-05-15T17:48:19.352Z,92.60
2019-05-15T17:50:52.197Z,92.70
2019-05-15T17:53:24.086Z,92.80
2019-05-15T17:55:52.361Z,92.70
2019-05-15T17:58:23.604Z,92.60
2019-05-15T18:00:51.397Z,92.50
2019-05-15T18:03:19.252Z,92.60
2019-05-15T18:05:48.438Z,92.60
2019-05-15T18:08:16.394Z,92.50
2019-05-15T18:10:44.788Z,92.60
2019-05-15T18:13:12.656Z,92.50
2019-05-15T18:15:40.829Z,92.70
2019-05-15T18:18:09.554Z,92.70
2019-05-15T18:20:38.343Z,92.70
2019-05-15T18:23:08.433Z,92.50
2019-05-15T18:25:38.183Z,92.60
2019-05-15T18:28:08.047Z,92.60
2019-05-15T18:30:35.556Z,92.70
2019-05-15T18:33:03.342Z,92.90
2019-05-15T18:35:32.932Z,92.90
2019-05-15T18:38:00.660Z,93.10
2019-05-15T18:40:28.280Z,93.00
2019-05-15T18:42:59.366Z,92.90
2019-05-15T18:45:28.937Z,93.10
2019-05-15T18:47:58.693Z,93.20
2019-05-15T18:50:28.373Z,93.30
2019-05-15T18:52:58.411Z,93.30
2019-05-15T18:55:25.990Z,93.20
2019-05-15T18:57:53.692Z,93.30
2019-05-15T19:00:21.698Z,93.30
2019-05-15T19:02:51.558Z,93.60
2019-05-15T19:05:19.633Z,93.40
2019-05-15T19:07:50.575Z,93.40
2019-05-15T19:10:28.212Z,93.30
2019-05-15T19:13:02.133Z,93.40
2019-05-15T19:15:33.130Z,93.40
2019-05-15T19:18:10.798Z,93.50
2019-05-15T19:20:38.935Z,93.40
2019-05-15T19:23:07.983Z,93.40
2019-05-15T19:25:36.740Z,93.30
2019-05-15T19:28:08.253Z,93.50
2019-05-15T19:30:50.689Z,93.30
2019-05-15T19:33:34.412Z,93.40
2019-05-15T19:36:02.319Z,93.40
2019-05-15T19:38:37.647Z,93.50
2019-05-15T19:41:23.212Z,93.60
2019-05-15T19:43:58.130Z,93.50
2019-05-15T19:46:28.324Z,93.60
2019-05-15T19:48:58.882Z,93.60
2019-05-15T19:51:30.419Z,93.50
2019-05-15T19:54:09.310Z,93.50
2019-05-15T19:56:37.891Z,93.70
2019-05-15T19:59:05.508Z,93.40
2019-05-15T20:01:33.660Z,93.50
2019-05-15T20:04:01.500Z,93.50
2019-05-15T20:06:29.468Z,93.50
2019-05-15T20:09:00.163Z,93.50
2019-05-15T20:11:28.014Z,93.40
2019-05-15T20:13:55.672Z,93.40
2019-05-15T20:16:30.430Z,93.40
2019-05-15T20:18:58.274Z,93.60
2019-05-15T20:21:28.554Z,93.50
2019-05-15T20:23:58.022Z,93.60
2019-05-15T20:26:38.006Z,93.70
2019-05-15T20:29:06.143Z,93.70
2019-05-15T20:31:50.571Z,93.70
2019-05-15T20:34:18.511Z,93.60
2019-05-15T20:36:48.913Z,93.70
2019-05-15T20:39:19.714Z,93.70
2019-05-15T20:41:48.736Z,93.50
2019-05-15T20:44:20.572Z,93.60
2019-05-15T20:46:51.011Z,93.60
2019-05-15T20:49:18.599Z,93.50
2019-05-15T20:51:48.930Z,93.50
2019-05-15T20:54:16.832Z,93.60
2019-05-15T20:59:32.484Z,93.50
2019-05-15T21:02:00.379Z,93.30
2019-05-15T21:04:28.208Z,93.30
2019-05-15T21:06:56.078Z,93.30
2019-05-15T21:09:23.797Z,93.20
2019-05-15T21:11:55.585Z,93.20
2019-05-15T21:14:23.700Z,93.20
2019-05-15T21:16:51.470Z,93.30
2019-05-15T21:19:19.110Z,93.30
2019-05-15T21:21:47.959Z,93.30
2019-05-15T21:24:18.053Z,93.40
2019-05-15T21:26:48.936Z,93.40
2019-05-15T21:29:18.372Z,93.40
2019-05-15T21:31:49.190Z,93.40
2019-05-15T21:34:32.193Z,93.40
2019-05-15T21:36:48.337Z,93.40
2019-05-15T21:39:16.247Z,93.30
2019-05-15T21:41:44.573Z,93.20
2019-05-15T21:44:12.337Z,93.30
2019-05-15T21:46:41.766Z,93.30
2019-05-15T21:49:09.482Z,93.10
2019-05-15T21:51:38.432Z,93.10
2019-05-15T21:54:09.347Z,93.10
2019-05-15T21:56:38.596Z,93.10
2019-05-15T21:59:08.222Z,93.00
2019-05-15T22:01:36.103Z,93.00
2019-05-15T22:04:03.787Z,93.10
2019-05-15T22:06:31.621Z,93.00
2019-05-15T22:09:05.016Z,93.00
2019-05-15T22:11:33.074Z,93.10
2019-05-15T22:14:00.849Z,93.10
2019-05-15T22:16:29.937Z,93.20
2019-05-15T22:19:03.148Z,93.00
2019-05-15T22:21:31.465Z,93.10
2019-05-15T22:24:00.352Z,93.00
2019-05-15T22:26:28.982Z,93.00
2019-05-15T22:28:58.427Z,93.00
2019-05-15T22:31:28.746Z,93.00
2019-05-15T22:33:58.400Z,93.00
2019-05-15T22:36:28.766Z,93.00
2019-05-15T22:38:58.922Z,93.00
2019-05-15T22:41:27.945Z,93.00
2019-05-15T22:43:56.954Z,93.00
2019-05-15T22:46:24.614Z,93.00
2019-05-15T22:48:52.600Z,93.20
2019-05-15T22:51:20.416Z,93.00
2019-05-15T22:53:48.842Z,93.10
2019-05-15T22:56:18.228Z,93.20
2019-05-15T22:58:48.242Z,93.20
2019-05-15T23:01:18.598Z,93.30
2019-05-15T23:03:49.325Z,93.40
2019-05-15T23:06:18.094Z,93.30
2019-05-15T23:08:48.686Z,93.40
2019-05-15T23:11:18.332Z,93.40
2019-05-15T23:13:48.217Z,93.40
2019-05-15T23:16:18.220Z,93.40
2019-05-15T23:18:48.491Z,93.40
2019-05-15T23:21:19.066Z,93.40
2019-05-15T23:23:48.680Z,93.30
2019-05-15T23:26:16.664Z,93.50
2019-05-15T23:28:44.828Z,93.50
2019-05-15T23:31:12.713Z,93.50
2019-05-15T23:33:40.572Z,93.50
2019-05-15T23:36:08.213Z,93.50
2019-05-15T23:38:35.939Z,93.60
2019-05-15T23:41:08.263Z,93.50
2019-05-15T23:43:36.209Z,93.60
2019-05-15T23:46:09.018Z,93.60
2019-05-15T23:48:40.419Z,93.60
2019-05-15T23:51:09.744Z,93.60
2019-05-15T23:53:39.848Z,93.60
2019-05-15T23:56:09.339Z,93.60
2019-05-15T23:58:38.104Z,93.60
